Orbital elements of COSMOS 970 DEB
| Launched | 20 December 1977 |
| Flight ended | – |
| Launch site | Tyuratam Missile and Space Center, Kazakhstan (Also known as Baikonur Cosmodrome) |
| Owner | Commonwealth of Independent States (former USSR) |
| NORAD ID | 64967 |
| Date fetched |
Epoch osculation |
Inc. [°] |
Ecc. | RA asc node [hr] |
Arg Peri. [°] |
Mean anom [°] |
Mean motion [rev/day] |
Abs. mag |
| Date fetched |
Epoch osculation |
Inc. [°] |
Ecc. | RA asc node [hr] |
Arg Peri. [°] |
Mean anom [°] |
Mean motion [rev/day] |
Abs. mag |
| 2026 May 03 17:57 | 2026 Apr 27 10:24:12 | 65.7371 | 0.01125 | 11.6845 | 255.8099 | 123.8234 | 13.62584 | – |
| 2026 May 02 17:57 | 2026 Apr 27 10:24:12 | 65.7371 | 0.01125 | 11.6845 | 255.8099 | 123.8234 | 13.62584 | – |
| 2026 May 01 17:56 | 2026 Apr 27 10:24:12 | 65.7371 | 0.01125 | 11.6845 | 255.8099 | 123.8234 | 13.62584 | – |
| 2026 Apr 30 17:56 | 2026 Apr 27 10:24:12 | 65.7371 | 0.01125 | 11.6845 | 255.8099 | 123.8234 | 13.62584 | – |
| 2026 Apr 29 17:57 | 2026 Apr 22 14:23:12 | 65.7388 | 0.01125 | 12.4671 | 257.8285 | 123.8234 | 13.62584 | – |
| 2026 Apr 28 17:56 | 2026 Apr 22 14:23:12 | 65.7388 | 0.01125 | 12.4671 | 257.8285 | 123.8234 | 13.62584 | – |
| 2026 Apr 27 17:58 | 2026 Apr 22 14:23:12 | 65.7388 | 0.01125 | 12.4671 | 257.8285 | 123.8234 | 13.62584 | – |
| 2026 Apr 26 17:58 | 2026 Apr 22 14:23:12 | 65.7388 | 0.01125 | 12.4671 | 257.8285 | 123.8234 | 13.62584 | – |
| 2026 Apr 25 17:58 | 2026 Apr 22 14:23:12 | 65.7388 | 0.01125 | 12.4671 | 257.8285 | 123.8234 | 13.62584 | – |
| 2026 Apr 24 17:59 | 2026 Apr 22 14:23:12 | 65.7388 | 0.01125 | 12.4671 | 257.8285 | 123.8234 | 13.62584 | – |
| 2026 Apr 23 17:57 | 2026 Apr 17 12:35:31 | 65.7389 | 0.01124 | 13.2885 | 259.9683 | 123.8234 | 13.62584 | – |
| 2026 Apr 22 17:57 | 2026 Apr 17 12:35:31 | 65.7389 | 0.01124 | 13.2885 | 259.9683 | 123.8234 | 13.62584 | – |
| 2026 Apr 21 17:57 | 2026 Apr 17 12:35:31 | 65.7389 | 0.01124 | 13.2885 | 259.9683 | 123.8234 | 13.62584 | – |
| 2026 Apr 20 17:57 | 2026 Apr 17 12:35:31 | 65.7389 | 0.01124 | 13.2885 | 259.9683 | 123.8234 | 13.62584 | – |
| 2026 Apr 19 17:58 | 2026 Apr 17 12:35:31 | 65.7389 | 0.01124 | 13.2885 | 259.9683 | 123.8234 | 13.62584 | – |
| 2026 Apr 18 17:56 | 2026 Apr 12 14:33:51 | 65.7391 | 0.01124 | 14.0846 | 262.0463 | 123.8234 | 13.62584 | – |
| 2026 Apr 16 17:57 | 2026 Apr 12 14:33:51 | 65.7391 | 0.01124 | 14.0846 | 262.0463 | 123.8234 | 13.62584 | – |
| 2026 Apr 14 17:57 | 2026 Apr 12 14:33:51 | 65.7391 | 0.01124 | 14.0846 | 262.0463 | 123.8234 | 13.62584 | – |
| 2026 Apr 13 17:57 | 2026 Apr 12 14:33:51 | 65.7391 | 0.01124 | 14.0846 | 262.0463 | 123.8234 | 13.62584 | – |
| 2026 Apr 12 17:57 | 2026 Apr 07 03:13:56 | 65.7386 | 0.01123 | 14.9704 | 264.3640 | 123.8234 | 13.62584 | – |
| 2026 Apr 11 17:57 | 2026 Apr 07 03:13:56 | 65.7386 | 0.01123 | 14.9704 | 264.3640 | 123.8234 | 13.62584 | – |
| 2026 Apr 10 17:58 | 2026 Apr 07 03:13:56 | 65.7386 | 0.01123 | 14.9704 | 264.3640 | 123.8234 | 13.62584 | – |
| 2026 Apr 09 18:01 | 2026 Apr 07 03:13:56 | 65.7386 | 0.01123 | 14.9704 | 264.3640 | 123.8234 | 13.62584 | – |
| 2026 Apr 08 17:57 | 2026 Apr 07 03:13:56 | 65.7386 | 0.01123 | 14.9704 | 264.3640 | 123.8234 | 13.62584 | – |
| 2026 Apr 07 17:57 | 2026 Mar 31 03:53:51 | 65.7379 | 0.01122 | 16.0991 | 267.3265 | 123.8234 | 13.62584 | – |
| 2026 Apr 06 17:57 | 2026 Mar 31 03:53:51 | 65.7379 | 0.01122 | 16.0991 | 267.3265 | 123.8234 | 13.62584 | – |